Time;durP1;ratioP1;P1;durP2;ratioP2;P2;SDS_P1;SDS_P2;PMS_P1;PMS_P2;Temp;Humidity;BMP_temperature;BMP_pressure;BME280_temperature;BME280_humidity;BME280_pressure;Samples;Min_cycle;Max_cycle;Signal;HPM_P1;HPM_P2
2022/05/19 00:00:36;;;;;;;2.70;2.30;;;;;;;24.94;44.69;101997.47;5093255;28;20055;-76
2022/05/19 00:03:05;;;;;;;3.53;2.63;;;;;;;24.92;44.79;101986.78;5093043;28;20040;-76
2022/05/19 00:05:32;;;;;;;3.47;2.08;;;;;;;24.92;44.82;101995.75;5092776;28;20048;-76
2022/05/19 00:07:59;;;;;;;4.18;2.60;;;;;;;24.93;44.68;101991.19;5092656;28;20044;-76
2022/05/19 00:10:27;;;;;;;4.82;2.55;;;;;;;24.92;44.83;101997.59;5093318;28;20048;-76
2022/05/19 00:12:57;;;;;;;4.38;2.45;;;;;;;24.92;44.89;101994.91;5091920;28;20106;-76
2022/05/19 00:15:24;;;;;;;2.92;2.22;;;;;;;24.91;45.04;101998.59;5092727;28;20447;-76
2022/05/19 00:17:52;;;;;;;6.18;2.65;;;;;;;24.92;45.28;101997.59;5093066;28;20048;-76
2022/05/19 00:20:20;;;;;;;3.85;2.80;;;;;;;24.92;45.02;101997.59;5092596;28;20381;-75
2022/05/19 00:22:48;;;;;;;3.67;2.50;;;;;;;24.91;45.18;101999.47;5092965;28;20399;-75
2022/05/19 00:25:15;;;;;;;5.07;2.60;;;;;;;24.91;44.98;101998.59;5074414;28;20055;-75
2022/05/19 00:27:42;;;;;;;3.92;2.40;;;;;;;24.91;45.04;101995.88;5095457;28;20044;-76
2022/05/19 00:30:10;;;;;;;4.05;2.60;;;;;;;24.91;44.83;101995.88;5096881;28;20047;-76
2022/05/19 00:32:38;;;;;;;4.53;2.60;;;;;;;24.91;45.22;101991.34;5096625;28;20047;-75
2022/05/19 00:35:06;;;;;;;5.13;2.70;;;;;;;24.91;45.04;102004.88;5111913;28;20685;-76
2022/05/19 00:37:33;;;;;;;3.13;2.13;;;;;;;24.90;44.72;102003.16;5115635;28;20051;-76
2022/05/19 00:40:00;;;;;;;4.20;2.20;;;;;;;24.91;44.46;101998.59;5116660;28;20050;-75
2022/05/19 00:42:43;;;;;;;5.07;2.47;;;;;;;24.90;44.86;102005.00;5115787;28;20063;-76
2022/05/19 00:45:21;;;;;;;4.18;2.40;;;;;;;24.91;44.90;102006.72;5117038;28;20039;-75
2022/05/19 00:48:05;;;;;;;3.83;2.83;;;;;;;24.89;44.66;101997.88;5115479;28;20075;-76
2022/05/19 00:51:02;;;;;;;3.75;2.60;;;;;;;24.88;44.95;101999.75;5116503;28;20043;-76
2022/05/19 00:53:42;;;;;;;3.00;2.25;;;;;;;24.88;44.64;101993.47;5114699;28;20052;-75
2022/05/19 00:56:44;;;;;;;4.57;2.53;;;;;;;24.89;44.56;102008.72;5116976;28;20047;-75
2022/05/19 00:59:20;;;;;;;4.15;2.40;;;;;;;24.88;44.53;102004.31;5102184;28;20059;-75
2022/05/19 01:01:48;;;;;;;4.60;2.35;;;;;;;24.88;44.59;102012.44;5116579;28;20055;-75
2022/05/19 01:04:19;;;;;;;5.90;2.75;;;;;;;24.87;44.21;102008.88;5115143;28;20062;-75
2022/05/19 01:06:50;;;;;;;7.43;2.63;;;;;;;24.87;44.35;102010.69;5116774;28;20066;-75
2022/05/19 01:09:18;;;;;;;2.92;2.22;;;;;;;24.87;44.53;102013.41;5116446;28;20043;-75
2022/05/19 01:11:51;;;;;;;3.90;2.50;;;;;;;24.86;44.97;102011.69;5116316;28;20071;-75
2022/05/19 01:14:18;;;;;;;4.00;2.55;;;;;;;24.86;44.82;102014.41;5116106;28;20040;-75
2022/05/19 01:16:47;;;;;;;4.18;2.20;;;;;;;24.86;44.75;102017.97;5115118;28;20055;-75
2022/05/19 01:19:35;;;;;;;5.22;2.65;;;;;;;24.85;44.98;102018.13;5115979;28;20051;-75
2022/05/19 01:22:30;;;;;;;4.70;2.45;;;;;;;24.84;44.60;102017.28;5115907;28;20048;-75
2022/05/19 01:25:21;;;;;;;4.68;2.88;;;;;;;24.85;44.51;102012.69;5116380;28;20049;-75
2022/05/19 01:27:49;;;;;;;3.00;2.40;;;;;;;24.84;44.47;102019.97;5114484;28;20051;-75
2022/05/19 01:30:17;;;;;;;3.40;3.00;;;;;;;24.84;44.30;102008.28;5116036;28;20047;-75
2022/05/19 01:32:44;;;;;;;3.38;2.45;;;;;;;24.84;44.06;102013.72;5114030;28;20074;-75
2022/05/19 01:35:12;;;;;;;2.90;2.15;;;;;;;24.82;44.13;102013.81;5114966;28;20032;-75
2022/05/19 01:37:39;;;;;;;3.65;2.60;;;;;;;24.83;44.00;102020.09;5114489;28;20058;-75
2022/05/19 01:40:35;;;;;;;3.13;2.40;;;;;;;24.83;44.01;102014.69;5115413;28;20063;-75
2022/05/19 01:43:22;;;;;;;4.05;2.60;;;;;;;24.83;43.79;102006.56;5115895;28;20051;-75
2022/05/19 01:46:12;;;;;;;3.88;2.65;;;;;;;24.82;43.59;102008.41;5115722;28;20036;-75
2022/05/19 01:48:52;;;;;;;2.90;2.22;;;;;;;24.81;43.42;102012.13;5115673;28;20059;-75
2022/05/19 01:51:45;;;;;;;2.92;2.08;;;;;;;24.80;43.78;102001.44;5114146;28;20062;-75
2022/05/19 01:54:18;;;;;;;4.50;2.58;;;;;;;24.79;43.80;102003.25;5115394;28;20059;-75
2022/05/19 01:57:01;;;;;;;4.10;2.83;;;;;;;24.78;44.03;102004.25;5115840;28;20043;-75
2022/05/19 01:59:49;;;;;;;3.00;2.70;;;;;;;24.77;43.98;101994.44;5115526;28;20054;-75
2022/05/19 02:02:50;;;;;;;3.42;2.45;;;;;;;24.76;44.02;102005.41;5115252;28;20043;-75
2022/05/19 02:05:40;;;;;;;3.40;2.38;;;;;;;24.75;43.64;101999.13;5115259;28;20050;-75
2022/05/19 02:08:14;;;;;;;3.25;2.20;;;;;;;24.75;43.98;102006.41;5115205;28;20505;-75
2022/05/19 02:10:50;;;;;;;3.67;2.30;;;;;;;24.75;43.90;102006.41;5096896;28;20047;-75
2022/05/19 02:13:19;;;;;;;2.90;2.20;;;;;;;24.75;44.10;102007.25;5115136;28;20048;-75
2022/05/19 02:15:51;;;;;;;2.70;2.10;;;;;;;24.74;43.94;102007.41;5114967;28;20486;-75
2022/05/19 02:18:24;;;;;;;4.60;2.95;;;;;;;24.75;44.09;102007.25;5114767;28;20482;-76
2022/05/19 02:20:55;;;;;;;5.43;2.75;;;;;;;24.75;44.12;102009.94;5115445;28;20048;-75
2022/05/19 02:23:24;;;;;;;4.97;2.53;;;;;;;24.75;44.26;102000.97;5113783;28;20047;-75
2022/05/19 02:25:53;;;;;;;4.70;2.70;;;;;;;24.76;44.13;102008.13;5115059;28;20043;-75
2022/05/19 02:28:36;;;;;;;5.72;2.60;;;;;;;24.76;44.09;102008.97;5115030;28;20043;-75
2022/05/19 02:31:04;;;;;;;3.90;2.30;;;;;;;24.76;44.50;102018.97;5114513;28;20052;-75
2022/05/19 02:33:31;;;;;;;4.13;2.42;;;;;;;24.75;44.38;102018.06;5115044;28;20054;-75
2022/05/19 02:35:58;;;;;;;3.92;2.28;;;;;;;24.76;44.30;102017.09;5113230;28;20360;-75
2022/05/19 02:38:26;;;;;;;6.20;2.60;;;;;;;24.76;44.45;102018.97;5113904;28;20063;-75
2022/05/19 02:40:53;;;;;;;2.80;2.30;;;;;;;24.76;44.38;102018.97;5113692;28;20497;-75
2022/05/19 02:43:21;;;;;;;4.80;2.58;;;;;;;24.75;44.42;102026.19;5114325;28;20047;-75
2022/05/19 02:45:49;;;;;;;2.63;1.92;;;;;;;24.76;44.45;102030.66;5114160;28;20048;-75
2022/05/19 02:48:17;;;;;;;5.10;2.30;;;;;;;24.75;44.62;102028.91;5113355;28;20048;-75
2022/05/19 02:50:47;;;;;;;3.85;2.50;;;;;;;24.75;44.76;102028.91;5096134;28;20048;-75
2022/05/19 02:53:16;;;;;;;4.63;2.38;;;;;;;24.76;44.63;102021.66;5113134;28;20050;-75
2022/05/19 02:55:44;;;;;;;3.00;2.38;;;;;;;24.76;44.76;102027.09;5114191;28;20042;-75
2022/05/19 02:58:13;;;;;;;3.97;2.60;;;;;;;24.75;44.98;102026.19;5112678;28;20048;-74
2022/05/19 03:00:43;;;;;;;4.53;2.15;;;;;;;24.76;45.21;102030.66;5113846;28;20043;-75
2022/05/19 03:03:10;;;;;;;3.88;2.58;;;;;;;24.76;45.11;102029.78;5113250;28;20048;-75
2022/05/19 03:05:39;;;;;;;3.38;2.63;;;;;;;24.77;44.97;102039.63;5113713;28;20488;-75
2022/05/19 03:08:07;;;;;;;4.18;2.30;;;;;;;24.76;44.72;102033.34;5114162;28;20355;-74
2022/05/19 03:10:37;;;;;;;4.90;2.15;;;;;;;24.76;44.78;102038.78;5114049;28;20047;-75
2022/05/19 03:13:06;;;;;;;2.63;2.03;;;;;;;24.76;44.84;102038.78;5114132;28;20490;-75
2022/05/19 03:15:34;;;;;;;4.85;2.47;;;;;;;24.76;44.91;102038.78;5113666;28;20043;-75
2022/05/19 03:18:01;;;;;;;5.47;2.08;;;;;;;24.76;45.22;102049.59;5113646;28;20043;-75
2022/05/19 03:20:30;;;;;;;4.20;2.22;;;;;;;24.75;44.85;102045.16;5114082;28;20044;-75
2022/05/19 03:22:57;;;;;;;3.65;2.42;;;;;;;24.75;44.70;102044.31;5113643;28;20043;-75
2022/05/19 03:25:24;;;;;;;3.50;2.50;;;;;;;24.75;44.54;102045.16;5112079;28;20040;-75
2022/05/19 03:27:52;;;;;;;3.53;2.15;;;;;;;24.75;44.54;102044.31;5113769;28;20047;-75
2022/05/19 03:30:20;;;;;;;3.58;2.80;;;;;;;24.75;44.75;102039.75;5113330;28;20043;-74
2022/05/19 03:32:47;;;;;;;3.35;2.25;;;;;;;24.73;44.97;102036.34;5112420;28;20047;-75
2022/05/19 03:35:16;;;;;;;4.18;2.83;;;;;;;24.75;45.08;102041.59;5112049;28;20047;-75
2022/05/19 03:37:44;;;;;;;4.32;2.40;;;;;;;24.74;45.11;102037.19;5112088;28;20055;-75
2022/05/19 03:40:14;;;;;;;6.22;2.42;;;;;;;24.74;44.95;102038.03;5113190;28;20051;-75
2022/05/19 03:42:41;;;;;;;3.40;2.15;;;;;;;24.74;44.92;102037.19;5113701;28;20043;-75
2022/05/19 03:45:09;;;;;;;5.20;2.58;;;;;;;24.72;44.85;102037.34;5113377;28;20043;-75
2022/05/19 03:47:36;;;;;;;4.88;2.40;;;;;;;24.73;45.04;102038.19;5113207;28;20040;-75
2022/05/19 03:50:04;;;;;;;3.17;2.22;;;;;;;24.73;45.05;102039.03;5113184;28;20485;-75
2022/05/19 03:52:40;;;;;;;4.40;2.20;;;;;;;24.73;45.09;102040.91;5112049;28;20100;-75
2022/05/19 03:55:08;;;;;;;3.30;2.25;;;;;;;24.73;45.52;102057.16;5094488;28;20040;-75
2022/05/19 03:57:36;;;;;;;3.47;2.20;;;;;;;24.73;45.41;102046.31;5111504;28;20043;-75
2022/05/19 04:00:05;;;;;;;2.88;1.98;;;;;;;24.72;45.41;102050.03;5112930;28;20418;-75
2022/05/19 04:02:40;;;;;;;4.72;2.80;;;;;;;24.72;45.36;102053.59;5119970;28;20052;-75
2022/05/19 04:05:09;;;;;;;3.20;2.28;;;;;;;24.71;45.46;102056.41;5111597;28;20054;-75
2022/05/19 04:07:37;;;;;;;4.13;2.25;;;;;;;24.71;45.38;102053.69;5112989;28;20044;-75
2022/05/19 04:10:06;;;;;;;3.53;2.10;;;;;;;24.70;45.28;102058.28;5113548;28;20044;-75
2022/05/19 04:12:34;;;;;;;3.50;2.60;;;;;;;24.70;45.17;102062.84;5113122;28;20054;-75
2022/05/19 04:15:03;;;;;;;3.63;2.30;;;;;;;24.70;45.38;102065.53;5113073;28;20052;-75
2022/05/19 04:17:33;;;;;;;3.70;2.40;;;;;;;24.69;45.39;102061.97;5113282;28;20055;-75
2022/05/19 04:20:03;;;;;;;3.58;2.38;;;;;;;24.68;45.13;102060.28;5113107;28;20044;-75
2022/05/19 04:22:30;;;;;;;4.57;2.20;;;;;;;24.69;45.46;102074.66;5111209;28;20146;-75
2022/05/19 04:25:00;;;;;;;4.82;2.38;;;;;;;24.69;45.35;102069.25;5113384;28;20513;-75
2022/05/19 04:27:29;;;;;;;4.32;2.30;;;;;;;24.67;45.40;102072.06;5112641;28;20063;-75
2022/05/19 04:29:56;;;;;;;2.70;2.00;;;;;;;24.67;45.12;102069.38;5112425;28;20050;-75
2022/05/19 04:32:31;;;;;;;2.97;2.22;;;;;;;24.66;45.38;102075.78;5114259;28;20390;-75
2022/05/19 04:35:00;;;;;;;4.60;2.22;;;;;;;24.65;45.27;102085.75;5113168;28;20040;-75
2022/05/19 04:37:27;;;;;;;3.38;2.38;;;;;;;24.67;45.37;102093.75;5113897;28;20078;-75
2022/05/19 04:39:55;;;;;;;5.15;2.78;;;;;;;24.64;45.35;102092.19;5113946;28;20051;-76
2022/05/19 04:42:22;;;;;;;2.88;2.38;;;;;;;24.66;45.44;102090.19;5114026;28;20048;-75
2022/05/19 04:44:49;;;;;;;4.45;2.67;;;;;;;24.66;45.44;102095.59;5112381;28;20043;-75
2022/05/19 04:47:17;;;;;;;4.00;2.42;;;;;;;24.65;45.79;102090.31;5112130;28;20498;-75
2022/05/19 04:49:44;;;;;;;8.55;2.85;;;;;;;24.64;45.43;102103.00;5112970;28;20043;-75
2022/05/19 04:52:12;;;;;;;5.05;2.63;;;;;;;24.63;45.61;102112.13;5112670;28;20051;-75
2022/05/19 04:54:39;;;;;;;4.60;2.08;;;;;;;24.64;45.54;102113.84;5112868;28;20051;-75
2022/05/19 04:57:07;;;;;;;5.68;2.50;;;;;;;24.64;45.75;102105.72;5112461;28;20039;-75
2022/05/19 04:59:39;;;;;;;5.45;2.53;;;;;;;24.64;45.95;102111.13;5112954;28;20047;-75
2022/05/19 05:02:08;;;;;;;3.42;2.20;;;;;;;24.65;46.04;102114.69;5112805;28;20047;-75
2022/05/19 05:04:36;;;;;;;3.53;2.33;;;;;;;24.63;45.47;102112.13;5113002;28;20398;-75
2022/05/19 05:07:04;;;;;;;4.13;2.70;;;;;;;24.64;45.43;102118.41;5112767;28;20047;-76
2022/05/19 05:09:31;;;;;;;3.60;2.28;;;;;;;24.62;45.24;102123.94;5112710;28;20078;-76
2022/05/19 05:11:59;;;;;;;3.53;2.60;;;;;;;24.62;45.19;102129.34;5112844;28;20043;-75
2022/05/19 05:14:26;;;;;;;3.08;2.40;;;;;;;24.62;45.32;102134.75;5113572;28;20051;-75
2022/05/19 05:16:55;;;;;;;4.03;2.97;;;;;;;24.62;45.38;102136.63;5116156;28;20047;-76
2022/05/19 05:19:24;;;;;;;7.20;2.70;;;;;;;24.62;45.26;102142.88;5115408;28;20481;-75
2022/05/19 05:21:56;;;;;;;4.20;2.33;;;;;;;24.62;45.51;102136.63;5116649;28;20504;-75
2022/05/19 05:24:24;;;;;;;3.17;2.53;;;;;;;24.62;45.64;102137.47;5115963;28;20048;-76
2022/05/19 05:26:51;;;;;;;6.55;2.70;;;;;;;24.63;45.90;102154.56;5115887;28;20042;-76
2022/05/19 05:29:20;;;;;;;3.63;2.13;;;;;;;24.63;45.84;102147.34;5116088;28;20044;-76
2022/05/19 05:31:48;;;;;;;4.30;2.72;;;;;;;24.62;45.70;102148.31;5116269;28;20043;-76
2022/05/19 05:34:15;;;;;;;5.00;2.30;;;;;;;24.63;46.23;102149.16;5114733;28;20044;-76
2022/05/19 05:36:43;;;;;;;4.90;3.00;;;;;;;24.62;46.01;102159.13;5115634;28;20047;-76
2022/05/19 05:39:10;;;;;;;4.60;2.60;;;;;;;24.62;46.26;102156.44;5113984;28;20039;-76
2022/05/19 05:41:39;;;;;;;4.80;2.53;;;;;;;24.63;46.08;102154.56;5115215;28;20043;-76
2022/05/19 05:44:07;;;;;;;5.15;3.10;;;;;;;24.62;46.55;102153.72;5116061;28;20055;-76
2022/05/19 05:46:35;;;;;;;4.03;2.38;;;;;;;24.63;46.39;102155.47;5115635;28;20047;-76
2022/05/19 05:49:02;;;;;;;4.10;2.47;;;;;;;24.63;46.19;102157.28;5115586;28;20048;-75
2022/05/19 05:51:33;;;;;;;4.15;2.38;;;;;;;24.62;46.21;102158.28;5116093;28;20047;-76
2022/05/19 05:54:01;;;;;;;4.43;2.40;;;;;;;24.62;46.33;102164.56;5115453;28;20050;-76
2022/05/19 05:56:28;;;;;;;3.90;2.47;;;;;;;24.63;46.26;102163.59;5115377;28;20035;-76
2022/05/19 05:58:55;;;;;;;4.00;2.75;;;;;;;24.63;46.33;102165.41;5113367;28;20507;-76
2022/05/19 06:01:23;;;;;;;6.05;2.90;;;;;;;24.62;46.12;102169.97;5115797;28;20051;-76
2022/05/19 06:03:51;;;;;;;8.57;3.10;;;;;;;24.63;46.51;102163.59;5115573;28;20047;-76
2022/05/19 06:06:18;;;;;;;5.13;2.63;;;;;;;24.64;46.20;102169.84;5115592;28;20035;-76
2022/05/19 06:08:46;;;;;;;6.35;3.03;;;;;;;24.63;46.26;102170.81;5114069;28;20398;-76
2022/05/19 06:11:13;;;;;;;4.28;2.53;;;;;;;24.61;46.13;102162.84;5115176;28;20043;-76
2022/05/19 06:13:42;;;;;;;5.00;2.67;;;;;;;24.63;46.12;102170.81;5115713;28;20070;-76
2022/05/19 06:16:11;;;;;;;6.97;2.65;;;;;;;24.62;46.74;102172.69;5116110;28;20101;-76
2022/05/19 06:18:38;;;;;;;6.45;2.53;;;;;;;24.62;45.99;102175.38;5116801;28;20482;-76
2022/05/19 06:21:06;;;;;;;5.60;2.60;;;;;;;24.62;45.79;102169.13;5116223;28;20048;-76
2022/05/19 06:23:33;;;;;;;4.68;2.75;;;;;;;24.62;45.89;102177.25;5116494;28;20043;-76
2022/05/19 06:26:03;;;;;;;7.18;2.70;;;;;;;24.62;45.88;102175.38;5114281;28;20410;-76
2022/05/19 06:28:37;;;;;;;4.90;2.40;;;;;;;24.62;45.59;102180.78;5116703;28;20486;-76
2022/05/19 06:31:39;;;;;;;4.38;2.40;;;;;;;24.62;45.43;102178.09;5126872;28;20044;-76
2022/05/19 06:34:10;;;;;;;6.75;2.90;;;;;;;24.60;44.95;102180.09;5119068;28;20058;-76
2022/05/19 06:36:47;;;;;;;5.40;2.60;;;;;;;24.58;44.75;102178.50;5109628;28;20494;-76
2022/05/19 06:39:18;;;;;;;4.82;2.53;;;;;;;24.57;45.18;102177.66;5115074;28;20066;-80
2022/05/19 06:42:00;;;;;;;7.00;2.85;;;;;;;24.58;45.92;102179.34;5113396;28;20051;-73
2022/05/19 06:44:35;;;;;;;4.60;2.78;;;;;;;24.59;45.69;102180.19;5115358;28;20051;-74
2022/05/19 06:47:10;;;;;;;4.30;2.38;;;;;;;24.59;45.46;102182.91;5113630;28;20063;-73
2022/05/19 06:49:45;;;;;;;4.07;2.45;;;;;;;24.59;45.71;102188.31;5113727;28;20474;-73
2022/05/19 06:52:14;;;;;;;5.65;2.33;;;;;;;24.59;45.71;102185.63;5113789;28;20043;-74
2022/05/19 06:54:46;;;;;;;4.97;2.38;;;;;;;24.59;45.79;102191.91;5101893;28;20059;-74
2022/05/19 06:57:15;;;;;;;5.95;3.20;;;;;;;24.53;45.64;102186.16;5094886;28;20426;-74
2022/05/19 06:59:42;;;;;;;9.70;3.22;;;;;;;24.47;45.44;102201.13;5094902;28;20064;-74
2022/05/19 07:02:10;;;;;;;4.47;3.30;;;;;;;24.40;45.32;102195.34;5094069;28;20052;-74
2022/05/19 07:04:39;;;;;;;7.43;2.75;;;;;;;24.37;45.56;102202.84;5097971;28;20047;-74
2022/05/19 07:07:07;;;;;;;4.50;2.40;;;;;;;24.32;42.67;102199.69;5114237;28;20051;-73
2022/05/19 07:09:35;;;;;;;3.92;2.10;;;;;;;24.27;42.42;102193.81;5114856;28;20043;-73
2022/05/19 07:12:05;;;;;;;7.82;2.58;;;;;;;24.22;42.32;102196.03;5114163;28;20051;-74
2022/05/19 07:14:33;;;;;;;5.22;2.80;;;;;;;24.15;42.63;102188.47;5114206;28;20040;-74
2022/05/19 07:17:00;;;;;;;5.28;2.63;;;;;;;24.09;43.58;102188.97;5114217;28;20403;-73
2022/05/19 07:22:22;;;;;;;6.07;3.30;;;;;;;24.03;45.07;102188.66;5114672;28;20043;-74
2022/05/19 07:24:51;;;;;;;5.70;4.10;;;;;;;23.97;45.96;102184.59;5114763;28;20055;-74
2022/05/19 07:27:19;;;;;;;9.35;5.07;;;;;;;23.89;46.11;102185.25;5114477;28;20036;-74
2022/05/19 07:29:46;;;;;;;6.47;4.47;;;;;;;23.90;46.09;102186.09;5113603;28;20046;-75
2022/05/19 07:32:21;;;;;;;8.27;4.82;;;;;;;23.92;45.86;102182.28;5113823;28;20047;-75
2022/05/19 07:34:48;;;;;;;6.68;4.63;;;;;;;23.98;45.91;102185.44;5114042;28;20042;-74
2022/05/19 07:37:16;;;;;;;6.30;4.75;;;;;;;24.04;45.84;102187.66;5112716;28;20059;-75
2022/05/19 07:39:44;;;;;;;8.98;4.95;;;;;;;24.09;46.22;102190.81;5113940;28;20039;-75
2022/05/19 07:42:11;;;;;;;7.93;5.38;;;;;;;24.13;45.98;102194.97;5112124;28;20048;-75
2022/05/19 07:44:39;;;;;;;6.30;5.10;;;;;;;24.18;45.75;102192.72;5113008;28;20047;-75
2022/05/19 07:47:07;;;;;;;8.35;5.30;;;;;;;24.22;46.15;102193.34;5113817;28;20451;-75
2022/05/19 07:49:36;;;;;;;8.75;5.57;;;;;;;24.26;45.85;102194.78;5113686;28;20039;-75
2022/05/19 07:52:04;;;;;;;5.95;4.78;;;;;;;24.29;46.01;102192.69;5114046;28;20043;-75
2022/05/19 07:54:31;;;;;;;6.20;4.32;;;;;;;24.31;45.81;102189.84;5114037;28;20398;-75
2022/05/19 07:56:59;;;;;;;5.10;3.88;;;;;;;24.34;46.32;102186.88;5113441;28;20039;-74
2022/05/19 07:59:28;;;;;;;6.07;4.40;;;;;;;24.36;46.02;102199.28;5113800;28;20513;-75
2022/05/19 08:01:55;;;;;;;5.22;4.10;;;;;;;24.39;46.05;102200.91;5112776;28;20052;-75
2022/05/19 08:04:25;;;;;;;5.00;4.22;;;;;;;24.40;46.09;102197.22;5112790;28;20050;-75
2022/05/19 08:06:52;;;;;;;6.30;4.20;;;;;;;24.41;46.33;102199.78;5114053;28;20047;-75
2022/05/19 08:15:34;;;;;;;6.60;4.15;;;;;;;24.46;46.47;102204.78;5113998;28;20058;-75
2022/05/19 08:17:59;;;;;;;4.82;4.00;;;;;;;24.50;46.79;102214.34;5114624;28;20402;-75
2022/05/19 08:20:30;;;;;;;5.93;3.92;;;;;;;24.51;46.79;102217.91;5113276;28;20070;-75
2022/05/19 08:23:03;;;;;;;7.53;4.10;;;;;;;24.52;46.64;102215.09;5114022;28;20467;-75
2022/05/19 08:25:30;;;;;;;9.40;4.38;;;;;;;24.53;47.17;102208.69;5113380;28;20043;-75
2022/05/19 08:27:58;;;;;;;8.15;4.07;;;;;;;24.54;46.97;102209.53;5113401;28;20050;-75
2022/05/19 08:30:26;;;;;;;6.35;3.70;;;;;;;24.55;47.22;102206.72;5112201;28;20051;-75
2022/05/19 08:32:54;;;;;;;7.45;4.03;;;;;;;24.55;47.05;102206.72;5113638;28;20055;-75
2022/05/19 08:35:23;;;;;;;5.75;3.50;;;;;;;24.56;47.34;102208.44;5113363;28;20043;-75
2022/05/19 08:37:51;;;;;;;7.88;4.28;;;;;;;24.57;47.32;102204.72;5113443;28;20051;-75
2022/05/19 08:40:20;;;;;;;10.27;3.75;;;;;;;24.59;47.60;102201.88;5094452;28;20048;-75
2022/05/19 08:42:53;;;;;;;9.60;3.60;;;;;;;24.59;47.58;102200.03;5113435;28;20055;-75
2022/05/19 08:45:54;;;;;;;7.63;3.80;;;;;;;24.57;45.88;102198.44;5113349;28;20043;-74
2022/05/19 08:48:25;;;;;;;5.55;3.00;;;;;;;24.52;44.93;102189.88;5052190;28;20049;-75
2022/05/19 08:50:53;;;;;;;5.10;3.40;;;;;;;24.48;44.25;102194.69;5054440;28;20057;-74
2022/05/19 08:53:21;;;;;;;8.48;3.85;;;;;;;24.41;43.91;102194.34;5037430;28;20557;-75
2022/05/19 08:55:54;;;;;;;8.02;3.63;;;;;;;24.34;44.67;102187.72;5054374;28;20057;-75
2022/05/19 08:58:34;;;;;;;9.60;3.60;;;;;;;24.30;46.67;102185.41;5053997;28;20160;-75
2022/05/19 09:01:15;;;;;;;4.13;3.13;;;;;;;24.26;45.25;102195.63;5054204;28;20056;-75
2022/05/19 09:04:11;;;;;;;4.40;3.35;;;;;;;24.26;46.11;102190.22;5037731;28;20499;-74
2022/05/19 09:07:56;;;;;;;5.63;2.70;;;;;;;24.28;46.06;102192.81;5054703;28;20049;-75
2022/05/19 09:09:50;;;;;;;7.43;3.35;;;;;;;24.31;45.79;102192.56;5054491;28;20049;-75
2022/05/19 09:12:20;;;;;;;4.00;2.72;;;;;;;24.33;45.82;102198.69;5054476;28;20063;-76
2022/05/19 09:14:48;;;;;;;7.65;2.92;;;;;;;24.35;44.71;102194.88;5054051;28;20049;-75
2022/05/19 09:17:18;;;;;;;4.35;3.20;;;;;;;24.37;44.63;102192.88;5036985;28;20067;-75
2022/05/19 09:19:53;;;;;;;5.45;3.00;;;;;;;24.40;43.60;102180.97;5053542;28;20057;-75
2022/05/19 09:22:24;;;;;;;4.32;3.10;;;;;;;24.43;42.83;102180.72;5053797;28;20053;-75
2022/05/19 09:24:53;;;;;;;6.60;3.15;;;;;;;24.44;43.01;102187.84;5085870;28;20059;-74
2022/05/19 09:27:22;;;;;;;4.88;3.03;;;;;;;24.45;42.14;102186.84;5114702;28;20055;-74
2022/05/19 09:29:55;;;;;;;4.28;3.05;;;;;;;24.46;43.29;102184.97;5116239;28;20484;-75
2022/05/19 09:32:29;;;;;;;13.82;3.67;;;;;;;24.48;43.41;102193.84;5116467;28;20036;-73
2022/05/19 09:35:09;;;;;;;7.53;2.60;;;;;;;24.48;43.80;102185.72;5116312;28;20051;-74
2022/05/19 09:37:46;;;;;;;5.22;2.80;;;;;;;24.47;43.60;102182.16;5114661;28;20055;-75
2022/05/19 09:40:23;;;;;;;6.22;2.83;;;;;;;24.49;43.65;102188.28;5117016;28;20052;-74
2022/05/19 09:43:10;;;;;;;4.20;2.70;;;;;;;24.50;44.01;102179.16;5115975;28;20058;-74
2022/05/19 09:45:42;;;;;;;4.43;2.80;;;;;;;24.51;44.08;102183.59;5117259;28;20055;-74
2022/05/19 09:48:11;;;;;;;5.20;2.92;;;;;;;24.52;44.32;102173.63;5118079;28;20394;-74
2022/05/19 09:50:46;;;;;;;7.47;3.00;;;;;;;24.51;44.59;102180.00;5115348;28;20059;-74
2022/05/19 09:53:26;;;;;;;6.60;3.28;;;;;;;24.51;45.04;102177.31;5118126;28;20043;-74
2022/05/19 09:56:02;;;;;;;5.05;2.70;;;;;;;24.51;45.37;102182.72;5117001;28;20048;-71
2022/05/19 09:58:32;;;;;;;5.50;2.85;;;;;;;24.50;45.08;102179.16;5114841;28;20054;-74
2022/05/19 10:01:15;;;;;;;5.93;2.72;;;;;;;24.49;44.03;102169.34;5115578;28;20051;-74
2022/05/19 10:03:55;;;;;;;4.93;3.00;;;;;;;24.51;45.30;102169.19;5115642;28;20047;-75
2022/05/19 10:06:36;;;;;;;6.57;2.75;;;;;;;24.51;45.58;102172.78;5115807;28;20048;-74
2022/05/19 10:09:10;;;;;;;4.43;2.88;;;;;;;24.52;45.63;102163.66;5115462;28;20044;-74
2022/05/19 10:11:51;;;;;;;6.75;3.00;;;;;;;24.53;45.46;102167.22;5116210;28;20043;-74
2022/05/19 10:14:26;;;;;;;5.72;2.95;;;;;;;24.53;44.69;102151.84;5115757;28;20400;-74
2022/05/19 10:17:31;;;;;;;3.58;2.70;;;;;;;24.52;45.20;102147.41;5115644;28;20474;-74
2022/05/19 10:20:16;;;;;;;4.78;3.08;;;;;;;24.53;45.18;102148.25;5116327;28;20047;-75
2022/05/19 10:23:01;;;;;;;4.50;2.72;;;;;;;24.54;46.01;102141.84;5115165;28;20054;-74
2022/05/19 10:25:42;;;;;;;3.20;2.80;;;;;;;24.55;45.76;102157.09;5116207;28;20422;-76
2022/05/19 10:31:20;;;;;;;5.03;3.25;;;;;;;24.56;46.31;102140.75;5115109;28;20048;-75
2022/05/19 10:34:00;;;;;;;4.43;2.80;;;;;;;24.57;46.12;102150.56;5115787;28;20055;-74
2022/05/19 10:36:47;;;;;;;5.53;2.80;;;;;;;24.58;46.40;102146.84;5115151;28;20047;-74
2022/05/19 10:39:33;;;;;;;5.93;2.95;;;;;;;24.59;45.92;102135.06;5114901;28;20489;-74
2022/05/19 10:42:15;;;;;;;4.38;2.80;;;;;;;24.60;46.12;102133.22;5113951;28;20054;-74
2022/05/19 10:44:45;;;;;;;6.22;2.92;;;;;;;24.59;46.04;102124.22;5114958;28;20047;-74
2022/05/19 10:47:23;;;;;;;6.70;2.92;;;;;;;24.60;45.71;102135.91;5115198;28;20402;-74
2022/05/19 10:49:58;;;;;;;3.97;2.85;;;;;;;24.61;46.02;102134.91;5114824;28;20039;-74
2022/05/19 10:52:37;;;;;;;4.75;2.90;;;;;;;24.60;46.05;102134.06;5112783;28;20056;-75
2022/05/19 10:55:05;;;;;;;4.20;2.38;;;;;;;24.60;46.31;102125.94;5113599;28;20055;-75
2022/05/19 10:57:36;;;;;;;3.92;3.10;;;;;;;24.62;47.36;102120.38;5112940;28;20052;-73
2022/05/19 11:00:15;;;;;;;3.92;2.80;;;;;;;24.62;49.23;102129.34;5114485;28;20040;-73
2022/05/19 11:02:48;;;;;;;3.78;2.53;;;;;;;24.62;48.70;102125.78;5094150;28;20052;-73
2022/05/19 11:05:27;;;;;;;6.07;3.08;;;;;;;24.60;47.63;102119.66;5093293;28;20062;-73
2022/05/19 11:08:13;;;;;;;4.60;2.90;;;;;;;24.59;50.56;102123.34;5094732;28;20052;-73
2022/05/19 11:10:48;;;;;;;5.20;3.30;;;;;;;24.73;43.46;102117.56;5093889;28;20124;-73
2022/05/19 11:13:21;;;;;;;6.00;3.10;;;;;;;24.67;42.20;102113.56;5094058;28;20059;-73
2022/05/19 11:16:23;;;;;;;3.72;3.03;;;;;;;24.73;42.51;102116.72;5092651;28;20059;-73
2022/05/19 11:19:07;;;;;;;5.03;2.85;;;;;;;24.76;42.56;102111.91;5092981;28;20040;-73
2022/05/19 11:21:44;;;;;;;4.60;2.95;;;;;;;24.79;42.56;102110.75;5094339;28;20036;-72
2022/05/19 11:24:22;;;;;;;4.75;3.13;;;;;;;24.81;42.97;102115.03;5094467;28;20044;-73
2022/05/19 11:27:09;;;;;;;4.10;2.83;;;;;;;24.77;46.94;102110.91;5093088;28;20048;-73
2022/05/19 11:29:45;;;;;;;3.60;2.47;;;;;;;24.74;44.93;102113.88;5092679;28;20400;-73
2022/05/19 11:32:23;;;;;;;4.70;3.13;;;;;;;24.72;43.45;102105.03;5094401;28;20055;-72
2022/05/19 11:34:56;;;;;;;10.32;3.60;;;;;;;24.75;44.10;102103.88;5094125;28;20059;-73
2022/05/19 11:37:31;;;;;;;;;;;;;;;24.76;42.66;102102.91;5092463;28;20059;-73
2022/05/19 11:40:11;;;;;;;7.70;3.33;;;;;;;24.81;42.62;102081.69;5093617;28;20398;-73
2022/05/19 11:42:42;;;;;;;6.78;3.00;;;;;;;24.79;42.47;102089.09;5093022;28;20047;-73
2022/05/19 11:45:16;;;;;;;8.25;3.78;;;;;;;24.79;42.93;102081.81;5092831;28;20066;-73
2022/05/19 11:56:25;;;;;;;5.72;2.83;;;;;;;24.83;43.27;102075.16;5094267;28;20053;-73
2022/05/19 11:58:52;;;;;;;4.75;3.00;;;;;;;24.95;42.77;102072.31;5093407;28;20040;-73
2022/05/19 12:01:37;;;;;;;4.93;3.05;;;;;;;24.90;44.17;102065.44;5091446;28;20415;-75
2022/05/19 12:04:13;;;;;;;4.38;3.10;;;;;;;24.87;45.51;102060.34;5093358;28;20040;-73
2022/05/19 12:06:50;;;;;;;4.65;2.80;;;;;;;24.84;47.88;102070.59;5091567;28;20054;-73
2022/05/19 12:09:30;;;;;;;4.97;2.95;;;;;;;24.82;46.79;102061.72;5092583;28;20051;-73